Terminal Aerodrome Forecast
Issued by NWS

Home | Current Version | Previous Version | Text Only | Print | Product List | Glossary On
Versions: 1 2 3 4 5 6 7 8 9 10 11 12
000
FTUS44 KEPZ 181100
TAFDMN
TAF
KDMN 181136Z 1812/1912 25006KT P6SM VCSH SCT040 OVC070
     FM181700 24006KT P6SM SCT030 BKN070
      TEMPO 1817/1821 -SHRA SCT030 BKN060
     FM182100 26008KT P6SM SCT030 BKN060
      TEMPO 1821/1901 -SHRA BKN030=

USA.gov is the U.S. government's official web portal to all federal, state and local government web resources and services.